Time;durP1;ratioP1;P1;durP2;ratioP2;P2;SDS_P1;SDS_P2;PMS_P1;PMS_P2;Temp;Humidity;BMP_temperature;BMP_pressure;BME280_temperature;BME280_humidity;BME280_pressure;Samples;Min_cycle;Max_cycle;Signal;HPM_P1;HPM_P2
2022/09/22 00:01:29;;;;;;;;;;;;;;;7.15;71.66;101743.52;1546154;90;20504;-79
2022/09/22 00:04:14;;;;;;;;;;;;;;;7.13;71.66;101741.34;1562904;90;20499;-79
2022/09/22 00:06:58;;;;;;;;;;;;;;;7.08;71.65;101745.55;1545499;90;20181;-79
2022/09/22 00:09:43;;;;;;;;;;;;;;;7.04;71.67;101742.06;1557089;90;20536;-79
2022/09/22 00:12:28;;;;;;;;;;;;;;;6.98;71.60;101741.54;1568293;90;20201;-79
2022/09/22 00:15:12;;;;;;;;;;;;;;;6.90;71.64;101746.10;1562636;90;20208;-79
2022/09/22 00:17:57;;;;;;;;;;;;;;;6.86;71.65;101748.17;1553511;90;20223;-79
2022/09/22 00:20:42;;;;;;;;;;;;;;;6.81;71.68;101739.09;1565835;90;20183;-79
2022/09/22 00:23:27;;;;;;;;;;;;;;;6.79;71.74;101738.63;1553567;90;20216;-79
2022/09/22 00:26:15;;;;;;;;;;;;;;;6.76;71.74;101745.03;1563708;90;20194;-79
2022/09/22 00:29:00;;;;;;;;;;;;;;;6.73;71.73;101744.55;1558262;89;20592;-79
2022/09/22 00:31:45;;;;;;;;;;;;;;;6.70;71.77;101741.06;1556790;90;20217;-79
2022/09/22 00:34:30;;;;;;;;;;;;;;;6.68;71.73;101742.32;1576262;90;20152;-79
2022/09/22 00:37:16;;;;;;;;;;;;;;;6.66;71.71;101747.85;1564357;90;20225;-79
2022/09/22 00:40:00;;;;;;;;;;;;;;;6.64;71.73;101749.11;1562792;90;20193;-79
2022/09/22 00:42:45;;;;;;;;;;;;;;;6.60;71.67;101746.45;1564661;90;20232;-79
2022/09/22 00:45:30;;;;;;;;;;;;;;;6.55;71.75;101750.22;1568363;89;20229;-79
2022/09/22 00:48:15;;;;;;;;;;;;;;;6.54;71.79;101750.19;1588515;89;20167;-79
2022/09/22 00:51:01;;;;;;;;;;;;;;;6.52;71.77;101748.87;1577225;89;20119;-79
2022/09/22 00:53:47;;;;;;;;;;;;;;;6.47;71.78;101747.06;1575869;89;20118;-79
2022/09/22 00:56:35;;;;;;;;;;;;;;;6.44;71.78;101745.72;1590650;89;20150;-79
2022/09/22 00:59:21;;;;;;;;;;;;;;;6.41;71.76;101744.38;1567290;89;20464;-78
2022/09/22 01:02:06;;;;;;;;;;;;;;;6.38;71.78;101748.16;1587126;89;20478;-78
2022/09/22 01:04:51;;;;;;;;;;;;;;;6.36;71.84;101744.28;1583779;89;20159;-78
2022/09/22 01:07:36;;;;;;;;;;;;;;;6.34;71.77;101739.95;1569405;89;20213;-78
2022/09/22 01:10:22;;;;;;;;;;;;;;;6.36;71.89;101744.28;1589578;89;20254;-79
2022/09/22 01:13:16;;;;;;;;;;;;;;;6.38;71.92;101743.03;1582784;89;20145;-79
2022/09/22 01:16:19;;;;;;;;;;;;;;;6.38;71.84;101738.75;1562390;89;20185;-79
2022/09/22 01:19:26;;;;;;;;;;;;;;;6.36;71.88;101742.13;1577908;89;20524;-79
2022/09/22 01:22:40;;;;;;;;;;;;;;;6.32;71.87;101742.49;1579124;89;20211;-78
2022/09/22 01:25:51;;;;;;;;;;;;;;;6.30;71.87;101738.61;1561882;89;20211;-78
2022/09/22 01:28:54;;;;;;;;;;;;;;;6.25;71.90;101732.52;1552783;89;20231;-78
2022/09/22 01:31:54;;;;;;;;;;;;;;;6.22;71.98;101732.48;1578181;89;20204;-78
2022/09/22 01:34:46;;;;;;;;;;;;;;;6.23;72.02;101732.06;1580443;89;20134;-79
2022/09/22 01:37:43;;;;;;;;;;;;;;;6.22;71.97;101730.34;1550240;89;20196;-79
2022/09/22 01:40:34;;;;;;;;;;;;;;;6.17;71.91;101730.25;1552406;89;20188;-79
2022/09/22 01:43:38;;;;;;;;;;;;;;;6.13;71.99;101731.02;1587571;89;20236;-79
2022/09/22 01:46:38;;;;;;;;;;;;;;;6.13;71.99;101728.87;1595097;89;20500;-79
2022/09/22 01:49:24;;;;;;;;;;;;;;;6.11;71.97;101732.69;1595700;89;20247;-78
2022/09/22 01:52:12;;;;;;;;;;;;;;;6.10;71.98;101725.83;1561404;89;20199;-78
2022/09/22 01:55:10;;;;;;;;;;;;;;;6.07;71.95;101728.33;1585420;89;20572;-78
2022/09/22 01:58:01;;;;;;;;;;;;;;;6.06;72.01;101721.87;1559672;89;20239;-78
2022/09/22 02:00:52;;;;;;;;;;;;;;;6.04;71.92;101722.27;1560682;89;20409;-79
2022/09/22 02:03:49;;;;;;;;;;;;;;;6.02;71.98;101722.65;1573734;89;20187;-79
2022/09/22 02:06:43;;;;;;;;;;;;;;;6.00;71.96;101722.62;1569364;89;20242;-79
2022/09/22 02:09:30;;;;;;;;;;;;;;;5.95;71.97;101723.81;1560343;88;20218;-79
2022/09/22 02:12:17;;;;;;;;;;;;;;;5.94;72.04;101716.94;1561630;89;20215;-79
2022/09/22 02:15:02;;;;;;;;;;;;;;;5.93;72.04;101719.47;1567329;89;20450;-79
2022/09/22 02:17:47;;;;;;;;;;;;;;;5.91;71.99;101720.73;1586668;89;20121;-79
2022/09/22 02:20:32;;;;;;;;;;;;;;;5.88;72.04;101719.34;1594492;89;20113;-79
2022/09/22 02:23:17;;;;;;;;;;;;;;;5.89;72.08;101721.11;1562477;89;20441;-79
2022/09/22 02:26:03;;;;;;;;;;;;;;;5.88;72.04;101721.05;1586285;89;20463;-79
2022/09/22 02:28:54;;;;;;;;;;;;;;;5.89;72.05;101721.11;1588668;89;20151;-79
2022/09/22 02:31:39;;;;;;;;;;;;;;;5.85;72.02;101716.72;1574444;89;20434;-79
2022/09/22 02:34:24;;;;;;;;;;;;;;;5.84;72.04;101714.98;1572523;89;20114;-79
2022/09/22 02:37:36;;;;;;;;;;;;;;;5.84;72.00;101725.25;1580848;89;20153;-79
2022/09/22 02:40:30;;;;;;;;;;;;;;;5.81;72.06;101729.03;1582735;89;20114;-79
2022/09/22 02:43:33;;;;;;;;;;;;;;;5.78;72.10;101717.42;1578634;89;20119;-79
2022/09/22 02:46:21;;;;;;;;;;;;;;;5.77;72.10;101718.67;1575963;89;20230;-80
2022/09/22 02:49:11;;;;;;;;;;;;;;;5.76;72.13;101717.80;1562607;89;20206;-79
2022/09/22 02:51:57;;;;;;;;;;;;;;;5.75;72.12;101719.92;1584522;89;20530;-79
2022/09/22 02:54:42;;;;;;;;;;;;;;;5.73;72.14;101715.59;1549480;89;20357;-80
2022/09/22 02:57:26;;;;;;;;;;;;;;;5.73;72.07;101713.02;1579310;89;20310;-80
2022/09/22 03:00:12;;;;;;;;;;;;;;;5.70;72.09;101714.27;1578394;89;20211;-80
2022/09/22 03:02:56;;;;;;;;;;;;;;;5.68;72.06;101721.94;1568725;89;20180;-80
2022/09/22 03:05:41;;;;;;;;;;;;;;;5.68;72.06;101718.09;1558063;89;20546;-79
2022/09/22 03:08:25;;;;;;;;;;;;;;;5.65;72.11;101715.04;1575940;89;20512;-79
2022/09/22 03:11:10;;;;;;;;;;;;;;;5.60;72.01;101712.78;1574323;89;20290;-79
2022/09/22 03:13:55;;;;;;;;;;;;;;;5.59;72.12;101711.47;1574969;89;20612;-79
2022/09/22 03:16:39;;;;;;;;;;;;;;;5.55;72.05;101722.50;1585870;89;20505;-79
2022/09/22 03:19:23;;;;;;;;;;;;;;;5.52;72.10;101721.14;1571246;89;20206;-78
2022/09/22 03:22:08;;;;;;;;;;;;;;;5.48;72.09;101718.92;1594194;89;20207;-78
2022/09/22 03:24:53;;;;;;;;;;;;;;;5.48;72.11;101720.21;1570180;89;20497;-79
2022/09/22 03:27:38;;;;;;;;;;;;;;;5.46;72.12;101717.16;1555285;89;20146;-79
2022/09/22 03:30:22;;;;;;;;;;;;;;;5.44;72.11;101726.52;1590100;89;20499;-79
2022/09/22 03:33:08;;;;;;;;;;;;;;;5.41;72.08;101724.75;1566667;89;38320;-79
2022/09/22 03:35:53;;;;;;;;;;;;;;;5.38;72.11;101716.12;1581491;89;20210;-79
2022/09/22 03:38:37;;;;;;;;;;;;;;;5.39;72.07;101724.27;1591493;89;20474;-79
2022/09/22 03:41:23;;;;;;;;;;;;;;;5.34;71.96;101725.44;1565855;89;20212;-79
2022/09/22 03:44:08;;;;;;;;;;;;;;;5.27;71.97;101716.73;1576833;89;20422;-79
2022/09/22 03:46:53;;;;;;;;;;;;;;;5.23;71.97;101720.47;1577576;89;20167;-78
2022/09/22 03:49:38;;;;;;;;;;;;;;;5.19;72.03;101718.70;1580467;89;20257;-78
2022/09/22 03:52:23;;;;;;;;;;;;;;;5.15;72.01;101715.20;1577479;89;20478;-78
2022/09/22 03:55:08;;;;;;;;;;;;;;;5.12;71.96;101721.53;1566662;89;20188;-78
2022/09/22 03:57:53;;;;;;;;;;;;;;;5.08;71.99;101717.58;1572646;89;20217;-78
2022/09/22 04:00:37;;;;;;;;;;;;;;;5.05;72.10;101712.38;1566214;89;20295;-78
2022/09/22 04:03:23;;;;;;;;;;;;;;;5.05;72.18;101719.65;1569076;89;20192;-78
2022/09/22 04:06:08;;;;;;;;;;;;;;;5.07;72.16;101721.84;1562650;89;20484;-80
2022/09/22 04:08:52;;;;;;;;;;;;;;;5.08;72.15;101715.02;1576766;89;20543;-78
2022/09/22 04:11:37;;;;;;;;;;;;;;;5.05;72.08;101714.52;1571280;89;20372;-78
2022/09/22 04:14:22;;;;;;;;;;;;;;;5.04;72.19;101717.05;1593715;88;20146;-78
2022/09/22 04:17:07;;;;;;;;;;;;;;;5.04;72.24;101711.92;1565015;89;20687;-79
2022/09/22 04:19:54;;;;;;;;;;;;;;;5.02;72.24;101711.89;1575829;89;20208;-79
2022/09/22 04:22:38;;;;;;;;;;;;;;;5.02;72.19;101706.76;1563771;89;20234;-80
2022/09/22 04:25:22;;;;;;;;;;;;;;;5.02;72.19;101708.45;1572728;88;20193;-81
2022/09/22 04:28:07;;;;;;;;;;;;;;;4.98;72.22;101703.67;1564303;89;21061;-81
2022/09/22 04:30:52;;;;;;;;;;;;;;;4.93;72.10;101711.66;1568494;89;20225;-81
2022/09/22 04:33:36;;;;;;;;;;;;;;;4.83;72.08;101713.54;1564619;89;20609;-81
2022/09/22 04:36:20;;;;;;;;;;;;;;;4.79;72.25;101708.75;1577190;89;20474;-79
2022/09/22 04:39:05;;;;;;;;;;;;;;;4.77;72.19;101712.10;1565106;89;20354;-79
2022/09/22 04:41:50;;;;;;;;;;;;;;;4.73;72.27;101706.03;1570008;88;20516;-79
2022/09/22 04:44:35;;;;;;;;;;;;;;;4.72;72.28;101717.11;1562961;89;20139;-79
2022/09/22 04:47:19;;;;;;;;;;;;;;;4.74;72.29;101707.77;1566318;89;20193;-79
2022/09/22 04:50:06;;;;;;;;;;;;;;;4.71;72.21;101714.52;1555309;90;20526;-78
2022/09/22 04:52:53;;;;;;;;;;;;;;;4.72;72.27;101714.55;1555172;90;20620;-78
2022/09/22 04:55:38;;;;;;;;;;;;;;;4.70;72.25;101717.48;1564082;90;20211;-78
2022/09/22 04:58:23;;;;;;;;;;;;;;;4.69;72.30;101716.16;1562165;90;20275;-78
2022/09/22 05:01:07;;;;;;;;;;;;;;;4.70;72.25;101718.77;1579632;90;20182;-78
2022/09/22 05:03:53;;;;;;;;;;;;;;;4.71;72.28;101717.94;1554338;90;20399;-78
2022/09/22 05:06:38;;;;;;;;;;;;;;;4.72;72.31;101720.09;1547656;90;20156;-78
2022/09/22 05:09:23;;;;;;;;;;;;;;;4.72;72.30;101721.37;1555149;91;20193;-78
2022/09/22 05:12:07;;;;;;;;;;;;;;;4.71;72.24;101723.48;1556048;90;20189;-78
2022/09/22 05:14:52;;;;;;;;;;;;;;;4.73;72.32;101720.55;1541838;90;20413;-78
2022/09/22 05:17:36;;;;;;;;;;;;;;;4.75;72.31;101731.28;1555856;91;20192;-78
2022/09/22 05:20:21;;;;;;;;;;;;;;;4.76;72.35;101726.61;1571232;90;20605;-78
2022/09/22 05:23:06;;;;;;;;;;;;;;;4.77;72.36;101723.22;1548891;90;20217;-79
2022/09/22 05:25:51;;;;;;;;;;;;;;;4.78;72.31;101724.95;1565586;90;20202;-79
2022/09/22 05:28:35;;;;;;;;;;;;;;;4.77;72.35;101726.20;1566144;90;20271;-79
2022/09/22 05:31:20;;;;;;;;;;;;;;;4.80;72.48;101726.27;1569320;90;20211;-79
2022/09/22 05:34:05;;;;;;;;;;;;;;;4.85;72.58;101719.16;1557001;90;20223;-79
2022/09/22 05:36:49;;;;;;;;;;;;;;;4.92;72.56;101727.45;1562841;90;20652;-78
2022/09/22 05:39:34;;;;;;;;;;;;;;;5.01;72.65;101734.92;1557014;90;20215;-79
2022/09/22 05:42:20;;;;;;;;;;;;;;;5.08;72.69;101733.83;1567666;90;20277;-79
2022/09/22 05:45:05;;;;;;;;;;;;;;;5.13;72.69;101729.67;1563024;90;20193;-79
2022/09/22 05:47:51;;;;;;;;;;;;;;;5.19;72.78;101726.39;1601030;88;20134;-79
2022/09/22 05:50:35;;;;;;;;;;;;;;;5.30;72.86;101730.05;1573679;89;20121;-79
2022/09/22 05:53:19;;;;;;;;;;;;;;;5.42;72.86;101732.03;1594465;87;20635;-79
2022/09/22 05:56:04;;;;;;;;;;;;;;;5.54;72.96;101732.31;1579773;90;20118;-79
2022/09/22 05:58:49;;;;;;;;;;;;;;;5.82;73.25;101732.05;1591083;88;20126;-79
2022/09/22 06:01:33;;;;;;;;;;;;;;;6.34;73.55;101730.96;1597243;88;20120;-79
2022/09/22 06:04:18;;;;;;;;;;;;;;;7.02;73.66;101733.88;1582211;88;20166;-79
2022/09/22 06:07:04;;;;;;;;;;;;;;;7.74;73.51;101731.52;1591493;88;20146;-79
2022/09/22 06:09:49;;;;;;;;;;;;;;;8.48;73.44;101728.09;1567286;90;20180;-79
2022/09/22 06:12:33;;;;;;;;;;;;;;;9.26;73.24;101737.38;1605966;88;20464;-79
2022/09/22 06:15:18;;;;;;;;;;;;;;;10.01;72.87;101732.59;1574681;89;20126;-79
2022/09/22 06:18:06;;;;;;;;;;;;;;;10.70;72.83;101733.23;1573918;88;20108;-79
2022/09/22 06:20:50;;;;;;;;;;;;;;;11.41;72.69;101737.53;1570617;90;20452;-78
2022/09/22 06:23:34;;;;;;;;;;;;;;;12.18;72.59;101741.59;1562793;91;20132;-78
2022/09/22 06:26:19;;;;;;;;;;;;;;;12.87;72.63;101751.11;1571348;91;20118;-81
2022/09/22 06:29:03;;;;;;;;;;;;;;;13.42;72.43;101749.80;1607788;88;20144;-78
2022/09/22 06:31:48;;;;;;;;;;;;;;;14.01;72.10;101746.98;1562793;89;20147;-81
2022/09/22 06:34:32;;;;;;;;;;;;;;;14.04;71.91;101745.61;1561545;90;20161;-79
2022/09/22 06:37:19;;;;;;;;;;;;;;;13.99;71.90;101747.00;1564069;90;20198;-79
2022/09/22 06:40:06;;;;;;;;;;;;;;;13.94;71.80;101755.29;1584757;89;20193;-79
2022/09/22 06:43:09;;;;;;;;;;;;;;;13.87;71.83;101751.90;1595618;88;20211;-79
2022/09/22 06:45:46;;;;;;;;;;;;;;;13.88;71.69;101758.82;1549511;90;20236;-80
2022/09/22 06:48:30;;;;;;;;;;;;;;;13.90;71.84;101751.00;1577911;90;20213;-79
2022/09/22 06:51:16;;;;;;;;;;;;;;;13.91;71.86;101752.28;1543398;89;20488;-79
2022/09/22 06:54:05;;;;;;;;;;;;;;;13.97;71.91;101745.29;1554151;89;20212;-82
2022/09/22 06:56:49;;;;;;;;;;;;;;;13.96;71.67;101760.03;1543749;90;20236;-82
2022/09/22 06:59:34;;;;;;;;;;;;;;;13.87;71.76;101748.44;1558098;90;20246;-82
2022/09/22 07:02:20;;;;;;;;;;;;;;;13.78;71.86;101752.00;1555093;90;20242;-79
2022/09/22 07:05:05;;;;;;;;;;;;;;;14.83;72.04;101752.34;1567189;90;20219;-77
2022/09/22 07:07:50;;;;;;;;;;;;;;;16.05;71.29;101744.47;1559342;90;20256;-78
2022/09/22 07:10:38;;;;;;;;;;;;;;;17.15;70.54;101746.72;1560519;90;20522;-78
2022/09/22 07:13:23;;;;;;;;;;;;;;;18.02;70.01;101741.73;1553977;90;20252;-78
2022/09/22 07:16:17;;;;;;;;;;;;;;;18.48;70.47;101742.95;1567727;90;20235;-78
2022/09/22 07:19:01;;;;;;;;;;;;;;;19.35;70.13;101742.27;1575720;90;20237;-78
2022/09/22 07:21:46;;;;;;;;;;;;;;;20.16;69.60;101744.14;1538779;91;20258;-78
2022/09/22 07:24:31;;;;;;;;;;;;;;;20.88;69.50;101753.12;1575972;90;20195;-79
2022/09/22 07:27:17;;;;;;;;;;;;;;;21.10;69.58;101750.47;1535709;91;20216;-79
2022/09/22 07:30:02;;;;;;;;;;;;;;;21.30;70.15;101751.83;1535169;91;20201;-78
2022/09/22 07:32:47;;;;;;;;;;;;;;;21.50;70.36;101743.05;1564195;90;20577;-78
2022/09/22 07:35:34;;;;;;;;;;;;;;;22.08;70.58;101747.90;1584418;89;20220;-78
2022/09/22 07:38:19;;;;;;;;;;;;;;;22.17;70.07;101747.94;1588513;89;20241;-79
2022/09/22 07:41:07;;;;;;;;;;;;;;;22.30;70.05;101745.13;1561859;89;21153;-79
2022/09/22 07:43:54;;;;;;;;;;;;;;;22.08;70.21;101743.95;1575238;89;20239;-78
2022/09/22 07:46:39;;;;;;;;;;;;;;;21.84;70.80;101750.29;1566137;88;20680;-78
2022/09/22 07:49:24;;;;;;;;;;;;;;;21.90;70.70;101744.75;1557448;91;20474;-78
2022/09/22 07:52:08;;;;;;;;;;;;;;;21.78;70.58;101753.23;1562365;90;20221;-78
2022/09/22 07:54:53;;;;;;;;;;;;;;;22.08;70.90;101749.22;1539348;90;20603;-79
2022/09/22 07:57:37;;;;;;;;;;;;;;;23.18;70.00;101743.88;1562857;90;20190;-81
2022/09/22 08:00:31;;;;;;;;;;;;;;;24.23;68.98;101741.38;1552492;90;20212;-81
2022/09/22 08:03:14;;;;;;;;;;;;;;;25.13;67.97;101742.38;1565603;90;20488;-80
2022/09/22 08:06:09;;;;;;;;;;;;;;;25.85;69.09;101745.98;1545803;90;20221;-81
2022/09/22 08:08:55;;;;;;;;;;;;;;;26.60;68.32;101746.02;1548806;90;20180;-81
2022/09/22 08:11:44;;;;;;;;;;;;;;;27.43;68.75;101737.34;1568434;90;20213;-81
2022/09/22 08:14:27;;;;;;;;;;;;;;;28.08;68.28;101734.02;1551156;90;20576;-81
2022/09/22 08:17:11;;;;;;;;;;;;;;;28.58;67.52;101733.03;1558284;90;20762;-81
2022/09/22 08:19:58;;;;;;;;;;;;;;;28.15;68.04;101735.28;1542715;90;20206;-81
2022/09/22 08:22:43;;;;;;;;;;;;;;;28.03;67.06;101735.34;1549066;90;20146;-81
2022/09/22 08:25:28;;;;;;;;;;;;;;;27.68;67.36;101736.88;1552132;90;20215;-81
2022/09/22 08:28:13;;;;;;;;;;;;;;;26.38;67.58;101738.16;1551668;90;20582;-81
2022/09/22 08:30:58;;;;;;;;;;;;;;;25.05;67.58;101740.19;1552924;92;20649;-81
2022/09/22 08:33:42;;;;;;;;;;;;;;;23.83;68.21;101736.97;1562923;90;20146;-80
2022/09/22 08:36:27;;;;;;;;;;;;;;;23.06;68.33;101748.45;1558078;90;20263;-80
2022/09/22 08:39:12;;;;;;;;;;;;;;;22.31;67.85;101744.66;1562918;90;622402;-79
2022/09/22 08:42:08;;;;;;;;;;;;;;;21.53;67.56;101743.38;1552197;90;20236;-80
2022/09/22 08:44:56;;;;;;;;;;;;;;;20.86;67.70;101744.44;1558027;90;20213;-80
2022/09/22 08:54:01;;;;;;;;;;;;;;;18.91;66.32;101743.77;1560392;90;20519;-80
2022/09/22 08:57:25;;;;;;;;;;;;;;;18.32;66.34;101745.18;1555278;90;20199;-80
2022/09/22 09:00:16;;;;;;;;;;;;;;;17.94;66.33;101738.92;1560492;90;20196;-80
2022/09/22 09:03:10;;;;;;;;;;;;;;;17.49;65.89;101734.05;1547340;90;20232;-80
2022/09/22 09:06:04;;;;;;;;;;;;;;;17.17;65.76;101730.96;1557879;90;20137;-79
2022/09/22 09:09:02;;;;;;;;;;;;;;;17.01;65.70;101732.27;1560674;90;20204;-79
2022/09/22 09:12:12;;;;;;;;;;;;;;;16.71;65.03;101728.19;1552826;90;20225;-79
2022/09/22 09:15:04;;;;;;;;;;;;;;;16.41;65.30;101721.06;1566403;91;20169;-79
2022/09/22 09:17:49;;;;;;;;;;;;;;;16.24;65.00;101718.81;1555162;90;20210;-79
2022/09/22 09:20:41;;;;;;;;;;;;;;;16.09;65.00;101713.52;1548860;90;20196;-80
2022/09/22 09:23:30;;;;;;;;;;;;;;;16.02;64.80;101713.67;1565344;89;20184;-80
2022/09/22 09:26:17;;;;;;;;;;;;;;;15.97;64.15;101712.46;1562326;90;20204;-79
2022/09/22 09:29:04;;;;;;;;;;;;;;;15.90;64.02;101716.09;1560805;90;20165;-79
2022/09/22 09:31:54;;;;;;;;;;;;;;;15.84;64.42;101710.99;1563740;90;20241;-79
2022/09/22 09:34:39;;;;;;;;;;;;;;;15.79;64.27;101716.30;1575154;90;20219;-79
2022/09/22 09:37:24;;;;;;;;;;;;;;;15.67;64.34;101717.84;1563272;90;20181;-79
2022/09/22 09:40:18;;;;;;;;;;;;;;;15.54;64.11;101718.96;1570413;90;20214;-78
2022/09/22 09:43:04;;;;;;;;;;;;;;;15.44;64.07;101725.23;1573761;89;20209;-79
2022/09/22 09:45:52;;;;;;;;;;;;;;;15.37;64.01;101724.48;1562958;90;20210;-79
2022/09/22 09:48:57;;;;;;;;;;;;;;;15.36;63.97;101722.77;1552133;90;20167;-79
2022/09/22 09:51:45;;;;;;;;;;;;;;;15.39;63.90;101723.16;1569371;90;20534;-79
2022/09/22 09:54:29;;;;;;;;;;;;;;;15.44;63.78;101723.48;1565890;90;20192;-79
2022/09/22 09:57:17;;;;;;;;;;;;;;;15.47;63.61;101719.96;1544398;90;20227;-79
2022/09/22 10:00:31;;;;;;;;;;;;;;;15.48;63.63;101719.94;1571728;90;20235;-79
2022/09/22 10:03:25;;;;;;;;;;;;;;;15.49;63.26;101717.74;1573282;90;20142;-79
2022/09/22 10:06:10;;;;;;;;;;;;;;;15.50;63.41;101714.25;1553816;90;20598;-79
2022/09/22 10:08:55;;;;;;;;;;;;;;;15.51;63.24;101713.80;1550459;90;20983;-79
2022/09/22 10:11:40;;;;;;;;;;;;;;;15.58;63.18;101711.97;1558434;90;20170;-79
2022/09/22 10:14:29;;;;;;;;;;;;;;;15.68;63.24;101705.66;1545887;91;20209;-79
2022/09/22 10:17:25;;;;;;;;;;;;;;;15.74;62.97;101710.77;1549323;90;20215;-79
2022/09/22 10:20:21;;;;;;;;;;;;;;;15.77;62.96;101703.73;1561708;90;20344;-80
2022/09/22 10:23:20;;;;;;;;;;;;;;;15.80;62.83;101704.12;1555332;90;20325;-79
2022/09/22 10:26:20;;;;;;;;;;;;;;;15.85;62.86;101706.19;1555244;90;20112;-79
2022/09/22 10:29:21;;;;;;;;;;;;;;;15.87;62.74;101708.32;1543767;90;20123;-79
2022/09/22 10:32:14;;;;;;;;;;;;;;;15.87;62.75;101702.66;1569682;89;20142;-79
2022/09/22 10:34:59;;;;;;;;;;;;;;;15.84;62.76;101700.56;1545041;90;20436;-79
2022/09/22 10:37:45;;;;;;;;;;;;;;;15.69;62.58;101697.81;1564677;90;20138;-79
2022/09/22 10:40:30;;;;;;;;;;;;;;;15.62;62.59;101710.55;1564407;90;20134;-78
2022/09/22 10:43:24;;;;;;;;;;;;;;;15.64;62.66;101709.22;1563153;89;20129;-79
2022/09/22 10:46:28;;;;;;;;;;;;;;;15.66;62.44;101708.75;1550762;90;20188;-79
2022/09/22 10:49:42;;;;;;;;;;;;;;;15.64;62.23;101704.00;1555008;90;20220;-79
2022/09/22 10:52:43;;;;;;;;;;;;;;;15.73;62.52;101696.86;1557747;90;20291;-79
2022/09/22 10:55:37;;;;;;;;;;;;;;;15.78;62.06;101698.94;1561149;90;20211;-79
2022/09/22 10:58:27;;;;;;;;;;;;;;;15.70;61.80;101696.92;1562954;90;20236;-79
2022/09/22 11:01:21;;;;;;;;;;;;;;;15.58;61.47;101692.42;1540652;90;20193;-79
2022/09/22 11:04:24;;;;;;;;;;;;;;;15.62;61.74;101692.75;1563608;90;20213;-79
2022/09/22 11:14:03;;;;;;;;;;;;;;;15.87;61.69;101687.45;1557531;90;20221;-79
2022/09/22 11:16:52;;;;;;;;;;;;;;;16.01;61.52;101678.89;1559007;90;20595;-79
2022/09/22 11:20:11;;;;;;;;;;;;;;;16.01;61.52;101678.89;1548844;90;20648;-79
2022/09/22 11:23:36;;;;;;;;;;;;;;;15.87;61.33;101681.80;1571645;90;20215;-79
2022/09/22 11:26:50;;;;;;;;;;;;;;;15.74;61.34;101678.16;1558375;90;20189;-79
2022/09/22 11:29:43;;;;;;;;;;;;;;;15.65;61.14;101683.56;1575594;89;20262;-79
2022/09/22 11:32:40;;;;;;;;;;;;;;;15.54;61.40;101682.02;1574423;89;20203;-80
2022/09/22 11:35:38;;;;;;;;;;;;;;;15.53;61.52;101681.61;1566898;88;20199;-79
2022/09/22 11:38:35;;;;;;;;;;;;;;;15.54;61.64;101683.33;1571002;89;20144;-78
2022/09/22 11:41:29;;;;;;;;;;;;;;;15.52;61.56;101683.80;1574773;89;20194;-80
2022/09/22 11:44:33;;;;;;;;;;;;;;;15.52;61.61;101676.42;1558726;90;20335;-79
2022/09/22 11:47:42;;;;;;;;;;;;;;;15.50;61.46;101676.89;1560469;90;20205;-78
2022/09/22 11:50:52;;;;;;;;;;;;;;;15.53;61.52;101672.92;1593007;89;20248;-79
2022/09/22 11:53:40;;;;;;;;;;;;;;;15.54;61.28;101671.59;1553969;90;20148;-79
2022/09/22 11:56:28;;;;;;;;;;;;;;;15.57;61.44;101674.62;1564140;89;20120;-79
2022/09/22 11:59:31;;;;;;;;;;;;;;;15.59;61.38;101671.98;1571454;89;20468;-79
2022/09/22 12:02:27;;;;;;;;;;;;;;;15.62;61.35;101672.75;1564970;89;20137;-79
2022/09/22 12:05:27;;;;;;;;;;;;;;;15.65;61.32;101671.38;1565379;88;20117;-79
2022/09/22 12:08:15;;;;;;;;;;;;;;;15.67;61.34;101677.42;1568772;89;20563;-79
2022/09/22 12:11:00;;;;;;;;;;;;;;;15.70;61.32;101672.15;1568956;89;20113;-79
2022/09/22 12:13:47;;;;;;;;;;;;;;;15.75;61.36;101670.31;1567679;90;20115;-79
2022/09/22 12:16:47;;;;;;;;;;;;;;;15.77;61.26;101665.92;1568069;90;20121;-79
2022/09/22 12:19:44;;;;;;;;;;;;;;;15.79;61.28;101661.98;1568216;90;20117;-81
2022/09/22 12:22:38;;;;;;;;;;;;;;;15.82;61.34;101660.16;1562050;90;20146;-81
2022/09/22 12:25:43;;;;;;;;;;;;;;;15.87;61.39;101660.07;1557769;90;20124;-80
2022/09/22 12:28:28;;;;;;;;;;;;;;;15.90;61.12;101654.79;1567160;90;20150;-79
2022/09/22 12:31:17;;;;;;;;;;;;;;;15.93;61.18;101646.90;1564207;90;20140;-79
2022/09/22 12:34:03;;;;;;;;;;;;;;;15.97;61.20;101649.00;1560433;90;20166;-79
2022/09/22 12:36:50;;;;;;;;;;;;;;;16.01;61.08;101641.52;1564957;90;20147;-79
2022/09/22 12:39:40;;;;;;;;;;;;;;;16.00;61.07;101638.49;1563385;90;20173;-79
2022/09/22 12:42:38;;;;;;;;;;;;;;;16.01;60.92;101642.38;1561823;89;20121;-79
2022/09/22 12:45:36;;;;;;;;;;;;;;;16.00;60.93;101643.27;1566543;90;20681;-79
2022/09/22 12:48:25;;;;;;;;;;;;;;;16.03;61.02;101643.64;1566584;89;20208;-80
2022/09/22 12:51:30;;;;;;;;;;;;;;;16.05;60.99;101638.80;1565378;89;20146;-79
2022/09/22 12:54:26;;;;;;;;;;;;;;;16.08;60.88;101641.34;1567379;90;20113;-80
2022/09/22 12:57:22;;;;;;;;;;;;;;;16.12;60.83;101636.88;1567332;90;20126;-79
2022/09/22 13:00:14;;;;;;;;;;;;;;;16.16;60.95;101644.61;1548505;91;20114;-79
2022/09/22 13:03:00;;;;;;;;;;;;;;;16.16;60.70;101641.14;1575725;89;20632;-79
2022/09/22 13:05:44;;;;;;;;;;;;;;;16.12;60.49;101646.02;1574547;89;20109;-79
2022/09/22 13:08:35;;;;;;;;;;;;;;;16.08;60.74;101638.73;1542333;90;20118;-79
2022/09/22 13:11:40;;;;;;;;;;;;;;;16.10;60.78;101640.01;1565933;89;20144;-79
2022/09/22 13:15:01;;;;;;;;;;;;;;;16.13;60.71;101644.67;1555656;90;20167;-79
2022/09/22 13:17:49;;;;;;;;;;;;;;;16.13;60.63;101639.46;1565924;90;20442;-79
2022/09/22 13:20:34;;;;;;;;;;;;;;;16.12;60.44;101642.10;1567365;90;20397;-79
2022/09/22 13:23:18;;;;;;;;;;;;;;;16.09;60.34;101640.45;1549209;90;20192;-79
2022/09/22 13:26:09;;;;;;;;;;;;;;;16.14;60.52;101642.92;1568339;89;20124;-79
2022/09/22 13:29:12;;;;;;;;;;;;;;;16.17;60.46;101638.50;1546728;91;20157;-79
2022/09/22 13:31:56;;;;;;;;;;;;;;;16.17;60.39;101635.89;1577063;89;20171;-79
2022/09/22 13:34:41;;;;;;;;;;;;;;;16.17;60.36;101635.03;1568106;89;20119;-78
2022/09/22 13:37:26;;;;;;;;;;;;;;;16.15;60.42;101633.76;1560259;90;20176;-79
2022/09/22 13:40:10;;;;;;;;;;;;;;;16.12;60.32;101629.91;1566367;90;20505;-80
2022/09/22 13:42:57;;;;;;;;;;;;;;;16.10;60.55;101631.73;1563763;90;20201;-79
2022/09/22 13:45:44;;;;;;;;;;;;;;;16.08;60.35;101627.44;1560373;90;20211;-79
2022/09/22 13:48:32;;;;;;;;;;;;;;;16.06;60.39;101629.23;1553527;90;20220;-79
2022/09/22 13:51:17;;;;;;;;;;;;;;;16.06;60.46;101632.70;1564437;90;20204;-80
2022/09/22 13:54:03;;;;;;;;;;;;;;;16.02;60.27;101630.19;1554579;90;20233;-80
2022/09/22 13:56:48;;;;;;;;;;;;;;;15.98;60.37;101619.41;1538991;91;20227;-79
2022/09/22 13:59:36;;;;;;;;;;;;;;;15.94;60.40;101625.14;1545537;91;20500;-78
2022/09/22 14:02:23;;;;;;;;;;;;;;;15.89;60.31;101623.93;1556195;91;20687;-79
2022/09/22 14:05:12;;;;;;;;;;;;;;;15.86;60.26;101622.69;1549411;91;20185;-79
2022/09/22 14:07:57;;;;;;;;;;;;;;;15.80;60.25;101618.91;1551287;90;20230;-79
2022/09/22 14:10:43;;;;;;;;;;;;;;;15.76;60.37;101620.31;1548231;91;20181;-79
2022/09/22 14:13:41;;;;;;;;;;;;;;;15.74;60.41;101620.79;1546116;90;20212;-79
2022/09/22 14:16:32;;;;;;;;;;;;;;;15.73;60.41;101621.23;1555235;90;20528;-79
2022/09/22 14:19:22;;;;;;;;;;;;;;;15.73;60.43;101621.23;1551113;90;20206;-79
2022/09/22 14:22:22;;;;;;;;;;;;;;;15.71;60.44;101616.50;1562343;90;21109;-79
2022/09/22 14:25:18;;;;;;;;;;;;;;;15.69;60.36;101614.81;1569180;91;20221;-79
2022/09/22 14:28:03;;;;;;;;;;;;;;;15.67;60.34;101614.84;1560551;90;20337;-79
2022/09/22 14:30:49;;;;;;;;;;;;;;;15.64;60.32;101617.96;1562709;91;20295;-79
2022/09/22 14:33:33;;;;;;;;;;;;;;;15.62;60.38;101621.91;1555247;90;20567;-79
2022/09/22 14:36:21;;;;;;;;;;;;;;;15.59;60.42;101618.09;1547538;91;20224;-80
2022/09/22 14:39:05;;;;;;;;;;;;;;;15.59;60.37;101618.53;1546539;90;20460;-79
2022/09/22 14:41:54;;;;;;;;;;;;;;;15.53;60.44;101611.22;1545253;89;358781;-79
2022/09/22 14:44:44;;;;;;;;;;;;;;;15.53;60.45;101612.97;1593726;89;20479;-79
2022/09/22 14:47:29;;;;;;;;;;;;;;;15.51;60.46;101609.53;1599257;89;20142;-79